sensor_id;sensor_type;location;lat;lon;timestamp;P1;durP1;ratioP1;P2;durP2;ratioP2
20729;SDS011;10526;50.850;12.928;2023-09-30T00:03:56;26.88;;;9.68;;
20729;SDS011;10526;50.850;12.928;2023-09-30T00:08:19;17.55;;;6.20;;
20729;SDS011;10526;50.850;12.928;2023-09-30T00:12:41;13.20;;;4.97;;
20729;SDS011;10526;50.850;12.928;2023-09-30T00:17:03;9.10;;;3.88;;
20729;SDS011;10526;50.850;12.928;2023-09-30T00:21:25;7.25;;;3.47;;
20729;SDS011;10526;50.850;12.928;2023-09-30T00:25:48;8.18;;;3.20;;
20729;SDS011;10526;50.850;12.928;2023-09-30T00:30:12;10.85;;;2.80;;
20729;SDS011;10526;50.850;12.928;2023-09-30T00:34:34;8.80;;;2.25;;
20729;SDS011;10526;50.850;12.928;2023-09-30T00:38:56;8.65;;;2.30;;
20729;SDS011;10526;50.850;12.928;2023-09-30T00:43:19;9.15;;;2.17;;
20729;SDS011;10526;50.850;12.928;2023-09-30T00:47:42;9.85;;;2.72;;
20729;SDS011;10526;50.850;12.928;2023-09-30T00:52:05;6.10;;;1.85;;
20729;SDS011;10526;50.850;12.928;2023-09-30T00:56:27;10.48;;;2.17;;
20729;SDS011;10526;50.850;12.928;2023-09-30T01:00:52;9.43;;;1.88;;
20729;SDS011;10526;50.850;12.928;2023-09-30T01:05:15;7.63;;;1.98;;
20729;SDS011;10526;50.850;12.928;2023-09-30T01:09:37;6.93;;;1.73;;
20729;SDS011;10526;50.850;12.928;2023-09-30T01:14:00;7.22;;;1.80;;
20729;SDS011;10526;50.850;12.928;2023-09-30T01:18:22;6.10;;;1.92;;
20729;SDS011;10526;50.850;12.928;2023-09-30T01:22:44;7.75;;;1.75;;
20729;SDS011;10526;50.850;12.928;2023-09-30T01:27:07;8.10;;;1.95;;
20729;SDS011;10526;50.850;12.928;2023-09-30T01:31:30;7.28;;;2.00;;
20729;SDS011;10526;50.850;12.928;2023-09-30T01:35:52;9.10;;;2.45;;
20729;SDS011;10526;50.850;12.928;2023-09-30T01:40:15;10.77;;;2.55;;
20729;SDS011;10526;50.850;12.928;2023-09-30T01:44:39;9.02;;;2.40;;
20729;SDS011;10526;50.850;12.928;2023-09-30T01:49:01;9.45;;;2.45;;
20729;SDS011;10526;50.850;12.928;2023-09-30T01:53:25;7.78;;;2.05;;
20729;SDS011;10526;50.850;12.928;2023-09-30T01:57:47;8.25;;;2.40;;
20729;SDS011;10526;50.850;12.928;2023-09-30T02:02:09;10.23;;;2.20;;
20729;SDS011;10526;50.850;12.928;2023-09-30T02:06:31;9.70;;;2.00;;
20729;SDS011;10526;50.850;12.928;2023-09-30T02:10:54;12.85;;;2.10;;
20729;SDS011;10526;50.850;12.928;2023-09-30T02:15:16;11.88;;;2.50;;
20729;SDS011;10526;50.850;12.928;2023-09-30T02:19:39;11.70;;;2.80;;
20729;SDS011;10526;50.850;12.928;2023-09-30T02:24:01;11.38;;;2.67;;
20729;SDS011;10526;50.850;12.928;2023-09-30T02:28:23;11.82;;;3.58;;
20729;SDS011;10526;50.850;12.928;2023-09-30T02:32:45;12.80;;;2.97;;
20729;SDS011;10526;50.850;12.928;2023-09-30T02:37:08;10.95;;;2.72;;
20729;SDS011;10526;50.850;12.928;2023-09-30T02:41:31;12.27;;;3.72;;
20729;SDS011;10526;50.850;12.928;2023-09-30T02:45:54;14.25;;;3.20;;
20729;SDS011;10526;50.850;12.928;2023-09-30T02:50:17;13.40;;;3.00;;
20729;SDS011;10526;50.850;12.928;2023-09-30T02:54:39;8.23;;;2.70;;
20729;SDS011;10526;50.850;12.928;2023-09-30T02:59:02;11.52;;;2.55;;
20729;SDS011;10526;50.850;12.928;2023-09-30T03:03:26;12.35;;;2.67;;
20729;SDS011;10526;50.850;12.928;2023-09-30T03:07:49;12.77;;;3.28;;
20729;SDS011;10526;50.850;12.928;2023-09-30T03:12:14;10.60;;;2.83;;
20729;SDS011;10526;50.850;12.928;2023-09-30T03:16:36;10.57;;;2.60;;
20729;SDS011;10526;50.850;12.928;2023-09-30T03:21:00;10.00;;;2.90;;
20729;SDS011;10526;50.850;12.928;2023-09-30T03:25:30;10.93;;;2.63;;
20729;SDS011;10526;50.850;12.928;2023-09-30T03:29:52;17.38;;;3.22;;
20729;SDS011;10526;50.850;12.928;2023-09-30T03:34:14;11.57;;;3.28;;
20729;SDS011;10526;50.850;12.928;2023-09-30T03:38:37;12.25;;;2.90;;
20729;SDS011;10526;50.850;12.928;2023-09-30T03:43:00;12.73;;;3.30;;
20729;SDS011;10526;50.850;12.928;2023-09-30T03:47:23;15.05;;;3.58;;
20729;SDS011;10526;50.850;12.928;2023-09-30T03:51:45;13.15;;;3.50;;
20729;SDS011;10526;50.850;12.928;2023-09-30T03:56:08;13.20;;;3.40;;
20729;SDS011;10526;50.850;12.928;2023-09-30T04:00:32;11.13;;;3.35;;
20729;SDS011;10526;50.850;12.928;2023-09-30T04:04:55;17.83;;;3.95;;
20729;SDS011;10526;50.850;12.928;2023-09-30T04:09:19;12.60;;;3.47;;
20729;SDS011;10526;50.850;12.928;2023-09-30T04:13:41;17.40;;;4.18;;
20729;SDS011;10526;50.850;12.928;2023-09-30T04:18:04;13.20;;;3.78;;
20729;SDS011;10526;50.850;12.928;2023-09-30T04:22:26;19.00;;;3.92;;
20729;SDS011;10526;50.850;12.928;2023-09-30T04:26:50;10.20;;;3.58;;
20729;SDS011;10526;50.850;12.928;2023-09-30T04:31:18;12.82;;;3.38;;
20729;SDS011;10526;50.850;12.928;2023-09-30T04:35:43;14.73;;;3.63;;
20729;SDS011;10526;50.850;12.928;2023-09-30T04:40:07;14.43;;;4.15;;
20729;SDS011;10526;50.850;12.928;2023-09-30T04:44:43;17.10;;;4.22;;
20729;SDS011;10526;50.850;12.928;2023-09-30T04:49:08;13.60;;;4.35;;
20729;SDS011;10526;50.850;12.928;2023-09-30T04:53:31;19.38;;;4.55;;
20729;SDS011;10526;50.850;12.928;2023-09-30T04:57:55;12.88;;;3.10;;
20729;SDS011;10526;50.850;12.928;2023-09-30T05:02:17;16.50;;;4.32;;
20729;SDS011;10526;50.850;12.928;2023-09-30T05:06:39;18.02;;;4.35;;
20729;SDS011;10526;50.850;12.928;2023-09-30T05:11:01;14.40;;;3.95;;
20729;SDS011;10526;50.850;12.928;2023-09-30T05:15:26;14.90;;;4.03;;
20729;SDS011;10526;50.850;12.928;2023-09-30T05:19:50;19.35;;;4.00;;
20729;SDS011;10526;50.850;12.928;2023-09-30T05:24:13;18.13;;;4.22;;
20729;SDS011;10526;50.850;12.928;2023-09-30T05:28:35;12.77;;;3.55;;
20729;SDS011;10526;50.850;12.928;2023-09-30T05:32:57;14.25;;;3.80;;
20729;SDS011;10526;50.850;12.928;2023-09-30T05:37:20;16.75;;;4.38;;
20729;SDS011;10526;50.850;12.928;2023-09-30T05:41:46;18.60;;;5.88;;
20729;SDS011;10526;50.850;12.928;2023-09-30T05:46:08;16.33;;;5.65;;
20729;SDS011;10526;50.850;12.928;2023-09-30T05:50:34;15.32;;;5.30;;
20729;SDS011;10526;50.850;12.928;2023-09-30T05:54:58;21.45;;;5.90;;
20729;SDS011;10526;50.850;12.928;2023-09-30T05:59:22;15.85;;;5.18;;
20729;SDS011;10526;50.850;12.928;2023-09-30T06:03:46;18.23;;;4.90;;
20729;SDS011;10526;50.850;12.928;2023-09-30T06:08:09;19.52;;;5.85;;
20729;SDS011;10526;50.850;12.928;2023-09-30T06:12:35;19.33;;;4.80;;
20729;SDS011;10526;50.850;12.928;2023-09-30T06:16:58;22.50;;;6.30;;
20729;SDS011;10526;50.850;12.928;2023-09-30T06:21:21;15.95;;;5.05;;
20729;SDS011;10526;50.850;12.928;2023-09-30T06:25:46;20.38;;;6.07;;
20729;SDS011;10526;50.850;12.928;2023-09-30T06:30:09;17.42;;;5.15;;
20729;SDS011;10526;50.850;12.928;2023-09-30T06:34:32;18.08;;;4.70;;
20729;SDS011;10526;50.850;12.928;2023-09-30T06:38:55;20.02;;;4.95;;
20729;SDS011;10526;50.850;12.928;2023-09-30T06:43:18;17.08;;;4.68;;
20729;SDS011;10526;50.850;12.928;2023-09-30T06:47:40;17.88;;;5.00;;
20729;SDS011;10526;50.850;12.928;2023-09-30T06:52:02;23.27;;;6.03;;
20729;SDS011;10526;50.850;12.928;2023-09-30T06:56:25;17.20;;;4.70;;
20729;SDS011;10526;50.850;12.928;2023-09-30T07:00:51;16.42;;;4.20;;
20729;SDS011;10526;50.850;12.928;2023-09-30T07:05:17;14.85;;;4.25;;
20729;SDS011;10526;50.850;12.928;2023-09-30T07:09:42;15.93;;;4.28;;
20729;SDS011;10526;50.850;12.928;2023-09-30T07:14:05;18.92;;;4.60;;
20729;SDS011;10526;50.850;12.928;2023-09-30T07:18:27;15.75;;;4.05;;
20729;SDS011;10526;50.850;12.928;2023-09-30T07:22:50;18.58;;;5.15;;
20729;SDS011;10526;50.850;12.928;2023-09-30T07:27:33;14.23;;;3.95;;
20729;SDS011;10526;50.850;12.928;2023-09-30T07:31:56;17.65;;;4.18;;
20729;SDS011;10526;50.850;12.928;2023-09-30T07:36:18;14.45;;;3.53;;
20729;SDS011;10526;50.850;12.928;2023-09-30T07:40:40;17.60;;;4.25;;
20729;SDS011;10526;50.850;12.928;2023-09-30T07:45:03;15.57;;;4.00;;
20729;SDS011;10526;50.850;12.928;2023-09-30T07:49:26;18.83;;;4.60;;
20729;SDS011;10526;50.850;12.928;2023-09-30T07:53:48;18.88;;;5.53;;
20729;SDS011;10526;50.850;12.928;2023-09-30T07:58:10;16.25;;;3.75;;
20729;SDS011;10526;50.850;12.928;2023-09-30T08:02:32;15.35;;;4.10;;
20729;SDS011;10526;50.850;12.928;2023-09-30T08:06:55;21.70;;;4.45;;
20729;SDS011;10526;50.850;12.928;2023-09-30T08:11:20;15.60;;;4.03;;
20729;SDS011;10526;50.850;12.928;2023-09-30T08:15:42;17.58;;;3.83;;
20729;SDS011;10526;50.850;12.928;2023-09-30T08:20:04;18.05;;;4.55;;
20729;SDS011;10526;50.850;12.928;2023-09-30T08:24:28;20.48;;;5.47;;
20729;SDS011;10526;50.850;12.928;2023-09-30T08:28:50;14.85;;;4.68;;
20729;SDS011;10526;50.850;12.928;2023-09-30T08:33:12;15.85;;;3.53;;
20729;SDS011;10526;50.850;12.928;2023-09-30T08:37:34;16.38;;;4.78;;
20729;SDS011;10526;50.850;12.928;2023-09-30T08:41:57;19.70;;;4.97;;
20729;SDS011;10526;50.850;12.928;2023-09-30T08:46:19;18.30;;;4.30;;
20729;SDS011;10526;50.850;12.928;2023-09-30T08:50:42;15.60;;;3.17;;
20729;SDS011;10526;50.850;12.928;2023-09-30T08:55:06;18.95;;;3.83;;
20729;SDS011;10526;50.850;12.928;2023-09-30T08:59:30;14.93;;;3.75;;
20729;SDS011;10526;50.850;12.928;2023-09-30T09:03:56;15.38;;;3.90;;
20729;SDS011;10526;50.850;12.928;2023-09-30T09:08:18;14.35;;;3.72;;
20729;SDS011;10526;50.850;12.928;2023-09-30T09:12:45;17.30;;;4.00;;
20729;SDS011;10526;50.850;12.928;2023-09-30T09:17:20;14.55;;;3.22;;
20729;SDS011;10526;50.850;12.928;2023-09-30T09:26:35;14.48;;;3.20;;
20729;SDS011;10526;50.850;12.928;2023-09-30T09:30:59;13.48;;;3.70;;
20729;SDS011;10526;50.850;12.928;2023-09-30T09:35:22;13.60;;;3.13;;
20729;SDS011;10526;50.850;12.928;2023-09-30T09:39:53;14.25;;;3.22;;
20729;SDS011;10526;50.850;12.928;2023-09-30T09:44:19;12.90;;;3.40;;
20729;SDS011;10526;50.850;12.928;2023-09-30T09:48:44;9.93;;;3.08;;
20729;SDS011;10526;50.850;12.928;2023-09-30T09:53:10;13.43;;;3.58;;
20729;SDS011;10526;50.850;12.928;2023-09-30T09:57:48;12.75;;;3.13;;
20729;SDS011;10526;50.850;12.928;2023-09-30T10:02:11;10.52;;;2.90;;
20729;SDS011;10526;50.850;12.928;2023-09-30T10:06:36;11.68;;;2.80;;
20729;SDS011;10526;50.850;12.928;2023-09-30T10:11:01;11.48;;;2.90;;
20729;SDS011;10526;50.850;12.928;2023-09-30T10:20:05;13.02;;;3.13;;
20729;SDS011;10526;50.850;12.928;2023-09-30T10:24:28;12.55;;;3.08;;
20729;SDS011;10526;50.850;12.928;2023-09-30T10:28:51;10.20;;;2.80;;
20729;SDS011;10526;50.850;12.928;2023-09-30T10:33:13;11.20;;;3.13;;
20729;SDS011;10526;50.850;12.928;2023-09-30T10:37:38;12.40;;;2.95;;
20729;SDS011;10526;50.850;12.928;2023-09-30T10:42:00;10.77;;;3.05;;
20729;SDS011;10526;50.850;12.928;2023-09-30T10:50:52;11.85;;;2.92;;
20729;SDS011;10526;50.850;12.928;2023-09-30T10:55:20;13.23;;;2.75;;
20729;SDS011;10526;50.850;12.928;2023-09-30T10:59:43;8.88;;;2.53;;
20729;SDS011;10526;50.850;12.928;2023-09-30T11:04:05;10.27;;;2.70;;
20729;SDS011;10526;50.850;12.928;2023-09-30T11:08:30;12.05;;;2.78;;
20729;SDS011;10526;50.850;12.928;2023-09-30T11:12:56;9.68;;;2.80;;
20729;SDS011;10526;50.850;12.928;2023-09-30T11:17:21;7.25;;;2.17;;
20729;SDS011;10526;50.850;12.928;2023-09-30T11:21:43;9.55;;;2.63;;
20729;SDS011;10526;50.850;12.928;2023-09-30T11:26:06;9.13;;;2.92;;
20729;SDS011;10526;50.850;12.928;2023-09-30T11:30:29;8.82;;;2.63;;
20729;SDS011;10526;50.850;12.928;2023-09-30T11:34:51;9.45;;;2.53;;
20729;SDS011;10526;50.850;12.928;2023-09-30T11:39:23;8.27;;;2.50;;
20729;SDS011;10526;50.850;12.928;2023-09-30T11:43:58;10.05;;;2.40;;
20729;SDS011;10526;50.850;12.928;2023-09-30T11:48:35;9.82;;;2.55;;
20729;SDS011;10526;50.850;12.928;2023-09-30T11:53:17;8.32;;;2.22;;
20729;SDS011;10526;50.850;12.928;2023-09-30T11:57:42;9.23;;;2.33;;
20729;SDS011;10526;50.850;12.928;2023-09-30T12:02:04;9.82;;;2.60;;
20729;SDS011;10526;50.850;12.928;2023-09-30T12:06:35;10.60;;;2.65;;
20729;SDS011;10526;50.850;12.928;2023-09-30T12:10:59;11.50;;;3.05;;
20729;SDS011;10526;50.850;12.928;2023-09-30T12:15:21;11.02;;;2.40;;
20729;SDS011;10526;50.850;12.928;2023-09-30T12:19:43;9.65;;;2.60;;
20729;SDS011;10526;50.850;12.928;2023-09-30T12:24:05;8.85;;;2.30;;
20729;SDS011;10526;50.850;12.928;2023-09-30T12:28:31;11.75;;;2.35;;
20729;SDS011;10526;50.850;12.928;2023-09-30T12:32:54;11.23;;;2.88;;
20729;SDS011;10526;50.850;12.928;2023-09-30T12:37:16;8.05;;;2.45;;
20729;SDS011;10526;50.850;12.928;2023-09-30T12:41:38;10.50;;;2.40;;
20729;SDS011;10526;50.850;12.928;2023-09-30T12:46:07;10.55;;;2.75;;
20729;SDS011;10526;50.850;12.928;2023-09-30T12:50:30;13.43;;;3.72;;
20729;SDS011;10526;50.850;12.928;2023-09-30T12:54:53;9.52;;;2.30;;
20729;SDS011;10526;50.850;12.928;2023-09-30T12:59:16;11.38;;;2.67;;
20729;SDS011;10526;50.850;12.928;2023-09-30T13:03:46;15.00;;;2.95;;
20729;SDS011;10526;50.850;12.928;2023-09-30T13:08:08;11.45;;;3.53;;
20729;SDS011;10526;50.850;12.928;2023-09-30T13:12:30;11.27;;;2.40;;
20729;SDS011;10526;50.850;12.928;2023-09-30T13:16:54;9.80;;;2.10;;
20729;SDS011;10526;50.850;12.928;2023-09-30T13:21:16;8.75;;;2.28;;
20729;SDS011;10526;50.850;12.928;2023-09-30T13:25:38;8.48;;;2.13;;
20729;SDS011;10526;50.850;12.928;2023-09-30T13:30:00;6.47;;;2.00;;
20729;SDS011;10526;50.850;12.928;2023-09-30T13:34:23;12.93;;;2.80;;
20729;SDS011;10526;50.850;12.928;2023-09-30T13:38:45;9.75;;;2.47;;
20729;SDS011;10526;50.850;12.928;2023-09-30T13:43:07;11.60;;;2.40;;
20729;SDS011;10526;50.850;12.928;2023-09-30T13:47:29;10.70;;;2.25;;
20729;SDS011;10526;50.850;12.928;2023-09-30T13:51:52;8.57;;;2.17;;
20729;SDS011;10526;50.850;12.928;2023-09-30T13:56:14;10.50;;;2.42;;
20729;SDS011;10526;50.850;12.928;2023-09-30T14:00:36;11.18;;;2.78;;
20729;SDS011;10526;50.850;12.928;2023-09-30T14:04:58;10.05;;;2.53;;
20729;SDS011;10526;50.850;12.928;2023-09-30T14:09:20;8.63;;;2.60;;
20729;SDS011;10526;50.850;12.928;2023-09-30T14:13:55;10.45;;;2.33;;
20729;SDS011;10526;50.850;12.928;2023-09-30T14:18:17;9.52;;;2.22;;
20729;SDS011;10526;50.850;12.928;2023-09-30T14:22:39;7.40;;;2.00;;
20729;SDS011;10526;50.850;12.928;2023-09-30T14:27:02;13.25;;;2.70;;
20729;SDS011;10526;50.850;12.928;2023-09-30T14:31:24;12.07;;;3.20;;
20729;SDS011;10526;50.850;12.928;2023-09-30T14:35:47;9.80;;;2.80;;
20729;SDS011;10526;50.850;12.928;2023-09-30T14:40:11;12.45;;;3.03;;
20729;SDS011;10526;50.850;12.928;2023-09-30T14:44:34;10.43;;;3.40;;
20729;SDS011;10526;50.850;12.928;2023-09-30T14:48:56;12.75;;;2.60;;
20729;SDS011;10526;50.850;12.928;2023-09-30T14:53:19;10.27;;;2.80;;
20729;SDS011;10526;50.850;12.928;2023-09-30T14:57:41;16.00;;;4.13;;
20729;SDS011;10526;50.850;12.928;2023-09-30T15:02:03;8.82;;;2.60;;
20729;SDS011;10526;50.850;12.928;2023-09-30T15:06:25;8.15;;;2.10;;
20729;SDS011;10526;50.850;12.928;2023-09-30T15:10:49;11.65;;;2.50;;
20729;SDS011;10526;50.850;12.928;2023-09-30T15:15:11;7.63;;;2.42;;
20729;SDS011;10526;50.850;12.928;2023-09-30T15:19:35;10.63;;;2.65;;
20729;SDS011;10526;50.850;12.928;2023-09-30T15:23:57;38.30;;;9.75;;
20729;SDS011;10526;50.850;12.928;2023-09-30T15:28:21;13.75;;;3.08;;
20729;SDS011;10526;50.850;12.928;2023-09-30T15:32:43;8.40;;;2.55;;
20729;SDS011;10526;50.850;12.928;2023-09-30T15:37:06;9.13;;;2.53;;
20729;SDS011;10526;50.850;12.928;2023-09-30T15:41:28;18.27;;;7.15;;
20729;SDS011;10526;50.850;12.928;2023-09-30T15:45:51;11.32;;;2.88;;
20729;SDS011;10526;50.850;12.928;2023-09-30T15:50:14;10.40;;;2.80;;
20729;SDS011;10526;50.850;12.928;2023-09-30T15:54:37;13.02;;;2.80;;
20729;SDS011;10526;50.850;12.928;2023-09-30T15:59:01;10.40;;;3.08;;
20729;SDS011;10526;50.850;12.928;2023-09-30T16:03:23;13.10;;;3.22;;
20729;SDS011;10526;50.850;12.928;2023-09-30T16:07:46;12.60;;;3.92;;
20729;SDS011;10526;50.850;12.928;2023-09-30T16:12:08;10.23;;;2.70;;
20729;SDS011;10526;50.850;12.928;2023-09-30T16:16:31;18.25;;;6.10;;
20729;SDS011;10526;50.850;12.928;2023-09-30T16:20:54;16.83;;;4.35;;
20729;SDS011;10526;50.850;12.928;2023-09-30T16:25:16;10.25;;;3.38;;
20729;SDS011;10526;50.850;12.928;2023-09-30T16:29:39;13.40;;;3.83;;
20729;SDS011;10526;50.850;12.928;2023-09-30T16:34:01;11.25;;;3.67;;
20729;SDS011;10526;50.850;12.928;2023-09-30T16:38:23;13.45;;;3.35;;
20729;SDS011;10526;50.850;12.928;2023-09-30T16:42:45;14.85;;;4.07;;
20729;SDS011;10526;50.850;12.928;2023-09-30T16:47:07;16.67;;;4.15;;
20729;SDS011;10526;50.850;12.928;2023-09-30T16:51:33;15.20;;;4.20;;
20729;SDS011;10526;50.850;12.928;2023-09-30T16:55:55;22.35;;;5.80;;
20729;SDS011;10526;50.850;12.928;2023-09-30T17:00:22;12.88;;;4.07;;
20729;SDS011;10526;50.850;12.928;2023-09-30T17:04:45;17.23;;;4.28;;
20729;SDS011;10526;50.850;12.928;2023-09-30T17:09:07;15.25;;;3.42;;
20729;SDS011;10526;50.850;12.928;2023-09-30T17:13:32;14.75;;;3.70;;
20729;SDS011;10526;50.850;12.928;2023-09-30T17:17:54;12.75;;;3.65;;
20729;SDS011;10526;50.850;12.928;2023-09-30T17:22:18;12.27;;;3.42;;
20729;SDS011;10526;50.850;12.928;2023-09-30T17:26:40;11.65;;;3.58;;
20729;SDS011;10526;50.850;12.928;2023-09-30T17:31:03;11.70;;;3.22;;
20729;SDS011;10526;50.850;12.928;2023-09-30T17:35:27;13.77;;;3.88;;
20729;SDS011;10526;50.850;12.928;2023-09-30T17:39:49;13.80;;;4.80;;
20729;SDS011;10526;50.850;12.928;2023-09-30T17:44:12;14.85;;;4.65;;
20729;SDS011;10526;50.850;12.928;2023-09-30T17:48:36;14.20;;;4.40;;
20729;SDS011;10526;50.850;12.928;2023-09-30T17:52:59;18.25;;;5.80;;
20729;SDS011;10526;50.850;12.928;2023-09-30T17:57:21;20.10;;;5.28;;
20729;SDS011;10526;50.850;12.928;2023-09-30T18:01:43;15.30;;;5.00;;
20729;SDS011;10526;50.850;12.928;2023-09-30T18:06:07;14.07;;;4.88;;
20729;SDS011;10526;50.850;12.928;2023-09-30T18:10:33;20.50;;;6.65;;
20729;SDS011;10526;50.850;12.928;2023-09-30T18:14:56;15.50;;;6.05;;
20729;SDS011;10526;50.850;12.928;2023-09-30T18:19:20;20.17;;;5.60;;
20729;SDS011;10526;50.850;12.928;2023-09-30T18:23:42;14.30;;;5.45;;
20729;SDS011;10526;50.850;12.928;2023-09-30T18:28:04;16.70;;;5.45;;
20729;SDS011;10526;50.850;12.928;2023-09-30T18:32:28;15.65;;;5.63;;
20729;SDS011;10526;50.850;12.928;2023-09-30T18:36:50;13.65;;;5.25;;
20729;SDS011;10526;50.850;12.928;2023-09-30T18:41:13;17.23;;;5.30;;
20729;SDS011;10526;50.850;12.928;2023-09-30T18:45:40;13.73;;;5.63;;
20729;SDS011;10526;50.850;12.928;2023-09-30T18:50:06;15.35;;;5.95;;
20729;SDS011;10526;50.850;12.928;2023-09-30T18:54:29;15.88;;;6.20;;
20729;SDS011;10526;50.850;12.928;2023-09-30T18:58:54;18.65;;;7.30;;
20729;SDS011;10526;50.850;12.928;2023-09-30T19:03:16;20.30;;;6.88;;
20729;SDS011;10526;50.850;12.928;2023-09-30T19:07:38;18.30;;;5.88;;
20729;SDS011;10526;50.850;12.928;2023-09-30T19:12:01;13.88;;;4.68;;
20729;SDS011;10526;50.850;12.928;2023-09-30T19:16:24;17.98;;;5.72;;
20729;SDS011;10526;50.850;12.928;2023-09-30T19:20:49;20.70;;;6.85;;
20729;SDS011;10526;50.850;12.928;2023-09-30T19:25:11;18.23;;;7.75;;
20729;SDS011;10526;50.850;12.928;2023-09-30T19:29:34;17.63;;;6.70;;
20729;SDS011;10526;50.850;12.928;2023-09-30T19:33:56;19.23;;;7.00;;
20729;SDS011;10526;50.850;12.928;2023-09-30T19:38:19;19.90;;;6.43;;
20729;SDS011;10526;50.850;12.928;2023-09-30T19:42:41;18.33;;;7.45;;
20729;SDS011;10526;50.850;12.928;2023-09-30T19:47:03;18.73;;;7.00;;
20729;SDS011;10526;50.850;12.928;2023-09-30T19:51:29;15.13;;;6.22;;
20729;SDS011;10526;50.850;12.928;2023-09-30T19:55:52;18.70;;;7.70;;
20729;SDS011;10526;50.850;12.928;2023-09-30T20:00:15;21.25;;;7.07;;
20729;SDS011;10526;50.850;12.928;2023-09-30T20:04:39;19.15;;;7.78;;
20729;SDS011;10526;50.850;12.928;2023-09-30T20:09:01;22.85;;;8.75;;
20729;SDS011;10526;50.850;12.928;2023-09-30T20:13:27;19.55;;;8.30;;
20729;SDS011;10526;50.850;12.928;2023-09-30T20:17:49;21.65;;;8.02;;
20729;SDS011;10526;50.850;12.928;2023-09-30T20:22:12;19.45;;;8.00;;
20729;SDS011;10526;50.850;12.928;2023-09-30T20:26:34;20.70;;;7.53;;
20729;SDS011;10526;50.850;12.928;2023-09-30T20:30:57;22.70;;;7.82;;
20729;SDS011;10526;50.850;12.928;2023-09-30T20:35:19;22.40;;;9.23;;
20729;SDS011;10526;50.850;12.928;2023-09-30T20:39:41;18.15;;;8.25;;
20729;SDS011;10526;50.850;12.928;2023-09-30T20:44:04;20.75;;;6.50;;
20729;SDS011;10526;50.850;12.928;2023-09-30T20:48:27;19.15;;;7.35;;
20729;SDS011;10526;50.850;12.928;2023-09-30T20:52:50;20.80;;;7.35;;
20729;SDS011;10526;50.850;12.928;2023-09-30T20:57:12;17.48;;;6.85;;
20729;SDS011;10526;50.850;12.928;2023-09-30T21:01:35;21.55;;;6.88;;
20729;SDS011;10526;50.850;12.928;2023-09-30T21:06:03;14.15;;;6.60;;
20729;SDS011;10526;50.850;12.928;2023-09-30T21:10:27;16.88;;;6.25;;
20729;SDS011;10526;50.850;12.928;2023-09-30T21:14:49;15.23;;;6.70;;
20729;SDS011;10526;50.850;12.928;2023-09-30T21:19:12;16.98;;;6.82;;
20729;SDS011;10526;50.850;12.928;2023-09-30T21:23:34;19.45;;;7.28;;
20729;SDS011;10526;50.850;12.928;2023-09-30T21:27:56;19.10;;;7.90;;
20729;SDS011;10526;50.850;12.928;2023-09-30T21:32:18;16.38;;;6.72;;
20729;SDS011;10526;50.850;12.928;2023-09-30T21:36:41;22.65;;;6.90;;
20729;SDS011;10526;50.850;12.928;2023-09-30T21:41:03;15.02;;;6.22;;
20729;SDS011;10526;50.850;12.928;2023-09-30T21:45:31;20.05;;;6.90;;
20729;SDS011;10526;50.850;12.928;2023-09-30T21:49:53;20.20;;;8.05;;
20729;SDS011;10526;50.850;12.928;2023-09-30T21:54:17;18.33;;;6.80;;
20729;SDS011;10526;50.850;12.928;2023-09-30T21:58:38;20.08;;;7.75;;
20729;SDS011;10526;50.850;12.928;2023-09-30T22:03:01;17.15;;;7.43;;
20729;SDS011;10526;50.850;12.928;2023-09-30T22:07:26;16.00;;;6.93;;
20729;SDS011;10526;50.850;12.928;2023-09-30T22:11:52;17.08;;;7.05;;
20729;SDS011;10526;50.850;12.928;2023-09-30T22:16:14;19.60;;;7.43;;
20729;SDS011;10526;50.850;12.928;2023-09-30T22:20:37;19.27;;;7.13;;
20729;SDS011;10526;50.850;12.928;2023-09-30T22:25:00;17.00;;;8.30;;
20729;SDS011;10526;50.850;12.928;2023-09-30T22:29:24;16.88;;;6.55;;
20729;SDS011;10526;50.850;12.928;2023-09-30T22:33:47;14.60;;;6.30;;
20729;SDS011;10526;50.850;12.928;2023-09-30T22:38:10;15.93;;;6.80;;
20729;SDS011;10526;50.850;12.928;2023-09-30T22:42:33;19.58;;;9.00;;
20729;SDS011;10526;50.850;12.928;2023-09-30T22:46:55;18.45;;;7.97;;
20729;SDS011;10526;50.850;12.928;2023-09-30T22:51:17;16.40;;;6.82;;
20729;SDS011;10526;50.850;12.928;2023-09-30T22:55:39;27.85;;;10.55;;
20729;SDS011;10526;50.850;12.928;2023-09-30T23:00:02;18.65;;;7.55;;
20729;SDS011;10526;50.850;12.928;2023-09-30T23:04:28;20.60;;;6.72;;
20729;SDS011;10526;50.850;12.928;2023-09-30T23:08:52;14.38;;;5.25;;
20729;SDS011;10526;50.850;12.928;2023-09-30T23:13:15;17.35;;;6.03;;
20729;SDS011;10526;50.850;12.928;2023-09-30T23:17:38;17.35;;;5.72;;
20729;SDS011;10526;50.850;12.928;2023-09-30T23:22:05;14.00;;;5.07;;
20729;SDS011;10526;50.850;12.928;2023-09-30T23:26:32;18.27;;;6.70;;
20729;SDS011;10526;50.850;12.928;2023-09-30T23:30:57;20.48;;;8.30;;
20729;SDS011;10526;50.850;12.928;2023-09-30T23:35:36;22.10;;;8.63;;
20729;SDS011;10526;50.850;12.928;2023-09-30T23:40:00;22.73;;;7.50;;
20729;SDS011;10526;50.850;12.928;2023-09-30T23:44:44;15.10;;;6.70;;
20729;SDS011;10526;50.850;12.928;2023-09-30T23:49:12;18.50;;;7.20;;
20729;SDS011;10526;50.850;12.928;2023-09-30T23:54:04;18.27;;;6.63;;
20729;SDS011;10526;50.850;12.928;2023-09-30T23:58:35;16.73;;;6.10;;
